createdAt,value
2018-11-20T00:01:42.764Z,18.50
2018-11-20T00:04:52.022Z,20.17
2018-11-20T00:08:01.305Z,16.33
2018-11-20T00:13:41.419Z,20.30
2018-11-20T00:16:47.503Z,21.77
2018-11-20T00:19:56.450Z,20.07
2018-11-20T00:26:09.419Z,17.43
2018-11-20T00:29:18.273Z,17.77
2018-11-20T00:32:07.558Z,18.37
2018-11-20T00:35:16.436Z,17.83
2018-11-20T00:46:58.992Z,15.80
2018-11-20T00:56:14.276Z,16.03
2018-11-20T01:01:52.274Z,15.40
2018-11-20T01:05:01.116Z,15.77
2018-11-20T01:08:10.272Z,14.70
2018-11-20T01:11:20.146Z,15.50
2018-11-20T01:14:10.784Z,15.57
2018-11-20T01:17:00.000Z,15.70
2018-11-20T01:26:16.253Z,15.00
2018-11-20T01:29:25.109Z,17.27
2018-11-20T01:34:58.392Z,15.03
2018-11-20T01:38:26.553Z,13.07
2018-11-20T01:41:36.500Z,12.13
2018-11-20T01:44:45.297Z,11.70
2018-11-20T01:47:54.232Z,12.47
2018-11-20T01:50:44.431Z,13.37
2018-11-20T01:56:38.474Z,12.90
2018-11-20T01:59:27.952Z,14.53
2018-11-20T02:02:36.907Z,15.53
2018-11-20T02:05:45.779Z,14.50
2018-11-20T02:08:54.657Z,15.60
2018-11-20T02:12:03.587Z,17.43
2018-11-20T02:15:12.443Z,14.73
2018-11-20T02:18:05.710Z,15.10
2018-11-20T02:21:14.687Z,18.07
2018-11-20T02:24:27.608Z,16.40
2018-11-20T02:27:10.120Z,19.60
2018-11-20T02:30:30.312Z,17.47
2018-11-20T02:36:12.772Z,18.00
2018-11-20T02:39:21.618Z,21.70
2018-11-20T02:48:00.963Z,21.20
2018-11-20T02:51:09.826Z,17.93
2018-11-20T02:54:20.662Z,18.57
2018-11-20T02:57:10.965Z,19.40
2018-11-20T03:00:17.737Z,16.93
2018-11-20T03:06:10.476Z,15.60
2018-11-20T03:09:19.314Z,15.00
2018-11-20T03:12:08.525Z,14.33
2018-11-20T03:15:17.369Z,13.10
2018-11-20T03:18:06.565Z,13.90
2018-11-20T03:21:15.413Z,11.47
2018-11-20T03:24:24.619Z,11.97
2018-11-20T03:27:33.473Z,12.70
2018-11-20T03:31:20.903Z,12.47
2018-11-20T03:34:12.715Z,12.87
2018-11-20T03:37:22.608Z,11.17
2018-11-20T03:40:11.796Z,13.67
2018-11-20T03:43:20.652Z,12.47
2018-11-20T03:46:29.489Z,13.20
2018-11-20T03:49:40.809Z,12.37
2018-11-20T03:52:49.667Z,12.83
2018-11-20T03:55:58.563Z,12.07
2018-11-20T03:59:07.447Z,12.50
2018-11-20T04:02:16.680Z,11.13
2018-11-20T04:08:07.778Z,10.87
2018-11-20T04:11:16.650Z,11.23
2018-11-20T04:14:05.831Z,11.50
2018-11-20T04:17:08.362Z,11.27
2018-11-20T04:20:09.895Z,10.77
2018-11-20T04:23:18.765Z,9.33
2018-11-20T04:29:10.500Z,8.27
2018-11-20T04:32:38.628Z,12.13
2018-11-20T04:35:29.536Z,9.40
2018-11-20T04:38:27.220Z,10.70
2018-11-20T04:44:26.376Z,11.63
2018-11-20T04:47:35.247Z,12.20
2018-11-20T04:50:15.371Z,10.97
2018-11-20T04:56:41.454Z,12.27
2018-11-20T05:02:34.408Z,12.13
2018-11-20T05:05:45.420Z,13.00
2018-11-20T05:11:58.217Z,12.00
2018-11-20T05:15:07.130Z,12.07
2018-11-20T05:18:15.998Z,13.00
2018-11-20T05:21:24.942Z,12.07
2018-11-20T05:24:21.595Z,12.40
2018-11-20T05:27:20.599Z,11.97
2018-11-20T05:30:29.422Z,14.50
2018-11-20T05:33:57.819Z,12.00
2018-11-20T05:37:06.414Z,12.27
2018-11-20T05:42:58.089Z,13.23
2018-11-20T05:45:48.320Z,10.50
2018-11-20T05:59:56.926Z,11.13
2018-11-20T06:03:05.772Z,11.10
2018-11-20T06:06:07.409Z,11.23
2018-11-20T06:12:00.256Z,12.27
2018-11-20T06:15:09.117Z,11.97
2018-11-20T06:18:18.005Z,11.33
2018-11-20T06:21:27.140Z,10.17
2018-11-20T06:24:36.017Z,10.10
2018-11-20T06:27:44.897Z,11.20
2018-11-20T06:30:53.736Z,20.00
2018-11-20T06:34:02.595Z,11.00
2018-11-20T06:36:51.800Z,9.77
2018-11-20T06:40:00.939Z,11.10
2018-11-20T06:42:51.129Z,9.57
2018-11-20T06:45:41.389Z,10.03
2018-11-20T06:48:30.538Z,9.57
2018-11-20T06:51:39.396Z,9.07
2018-11-20T06:54:48.578Z,10.03
2018-11-20T06:57:57.532Z,9.13
2018-11-20T07:00:46.789Z,9.80
2018-11-20T07:03:55.674Z,11.17
2018-11-20T07:06:52.054Z,10.67
2018-11-20T07:10:00.920Z,10.10
2018-11-20T07:13:09.792Z,9.50
2018-11-20T07:16:56.462Z,10.13
2018-11-20T07:19:50.363Z,11.33
2018-11-20T07:22:39.607Z,9.30
2018-11-20T07:25:48.431Z,9.70
2018-11-20T07:28:57.270Z,8.40
2018-11-20T07:32:06.537Z,8.20
2018-11-20T07:35:15.402Z,9.93
2018-11-20T07:38:24.473Z,9.47
2018-11-20T07:41:33.296Z,10.27
2018-11-20T07:44:42.140Z,11.33
2018-11-20T07:47:51.015Z,10.70
2018-11-20T07:51:00.232Z,13.20
2018-11-20T07:54:09.059Z,14.37
2018-11-20T07:57:17.939Z,13.87
2018-11-20T08:00:46.074Z,15.73
2018-11-20T08:03:35.237Z,14.47
2018-11-20T08:06:44.077Z,14.30
2018-11-20T08:09:52.938Z,14.00
2018-11-20T08:13:01.801Z,17.13
2018-11-20T08:16:11.045Z,13.50
2018-11-20T08:19:20.653Z,16.03
2018-11-20T08:25:11.728Z,14.90
2018-11-20T08:28:20.698Z,16.00
2018-11-20T08:31:29.587Z,14.10
2018-11-20T08:34:50.184Z,17.50
2018-11-20T08:37:41.006Z,15.63
2018-11-20T08:43:33.826Z,15.37
2018-11-20T08:46:42.679Z,16.00
2018-11-20T08:49:32.026Z,15.17
2018-11-20T08:52:40.921Z,15.17
2018-11-20T08:58:11.474Z,16.40
2018-11-20T09:01:11.616Z,15.20
2018-11-20T09:04:20.539Z,13.13
2018-11-20T09:07:29.453Z,12.90
2018-11-20T09:10:38.342Z,13.37
2018-11-20T09:13:47.176Z,14.20
2018-11-20T09:16:56.304Z,12.50
2018-11-20T09:22:48.117Z,14.77
2018-11-20T09:25:56.988Z,11.97
2018-11-20T09:28:46.176Z,10.53
2018-11-20T09:34:18.449Z,18.00
2018-11-20T09:37:27.283Z,13.00
2018-11-20T09:41:04.922Z,11.63
2018-11-20T09:44:51.576Z,11.47
2018-11-20T09:47:42.273Z,11.10
2018-11-20T09:50:51.153Z,10.80
2018-11-20T09:56:42.481Z,9.47
2018-11-20T09:59:51.373Z,8.83
2018-11-20T10:03:00.188Z,9.07
2018-11-20T10:06:09.053Z,7.60
2018-11-20T10:12:01.214Z,7.50
2018-11-20T10:15:10.110Z,6.43
2018-11-20T10:18:18.988Z,7.33
2018-11-20T10:21:27.950Z,7.80
2018-11-20T10:27:20.389Z,6.10
2018-11-20T10:30:29.594Z,7.47
2018-11-20T10:36:21.981Z,8.10
2018-11-20T10:39:31.074Z,5.90
2018-11-20T10:45:23.964Z,4.73
2018-11-20T10:48:32.728Z,4.80
2018-11-20T10:51:26.864Z,5.03
2018-11-20T10:54:35.851Z,5.13
2018-11-20T10:57:44.695Z,4.80
2018-11-20T11:00:53.575Z,3.17
2018-11-20T11:04:02.541Z,4.40
2018-11-20T11:07:30.969Z,4.90
2018-11-20T11:10:06.155Z,3.70
2018-11-20T11:13:15.156Z,5.00
2018-11-20T11:16:16.856Z,3.47
2018-11-20T11:22:07.530Z,2.80
2018-11-20T11:25:16.402Z,3.00
2018-11-20T11:28:05.559Z,2.50
2018-11-20T11:31:26.371Z,3.03
2018-11-20T11:34:29.311Z,2.57
2018-11-20T11:37:00.622Z,2.13
2018-11-20T11:40:09.476Z,1.90
2018-11-20T11:43:18.315Z,2.07
2018-11-20T11:46:19.251Z,4.17
2018-11-20T11:49:08.744Z,2.97
2018-11-20T11:52:17.592Z,6.73
2018-11-20T11:55:26.492Z,2.17
2018-11-20T11:58:35.521Z,1.87
2018-11-20T12:04:52.499Z,2.40
2018-11-20T12:08:01.381Z,1.77
2018-11-20T12:11:10.235Z,1.80
2018-11-20T12:14:19.094Z,1.90
2018-11-20T12:17:28.276Z,2.73
2018-11-20T12:20:37.171Z,1.77
2018-11-20T12:23:46.059Z,3.37
2018-11-20T12:26:55.447Z,2.30
2018-11-20T12:30:04.766Z,2.63
2018-11-20T12:33:13.629Z,2.20
2018-11-20T12:36:02.866Z,1.87
2018-11-20T12:38:52.030Z,1.50
2018-11-20T12:42:02.533Z,2.17
2018-11-20T12:47:53.983Z,2.70
2018-11-20T12:50:43.175Z,3.50
2018-11-20T12:53:52.029Z,2.70
2018-11-20T12:59:45.806Z,3.60
2018-11-20T13:02:54.950Z,3.23
2018-11-20T13:05:44.111Z,2.90
2018-11-20T13:08:52.952Z,3.10
2018-11-20T13:12:01.828Z,3.67
2018-11-20T13:15:10.687Z,3.30
2018-11-20T13:18:19.831Z,3.87
2018-11-20T13:21:28.748Z,3.73
2018-11-20T13:24:41.160Z,4.10
2018-11-20T13:27:32.154Z,5.77
2018-11-20T13:30:40.993Z,9.10
2018-11-20T13:39:18.224Z,6.33
2018-11-20T13:42:47.757Z,7.40
2018-11-20T13:45:56.710Z,7.10
2018-11-20T13:49:05.571Z,6.50
2018-11-20T13:52:14.685Z,7.10
2018-11-20T13:58:06.707Z,13.03
2018-11-20T14:01:15.551Z,10.47
2018-11-20T14:04:24.469Z,9.37
2018-11-20T14:10:07.088Z,8.90
2018-11-20T14:13:15.971Z,9.63
2018-11-20T14:16:25.143Z,8.17
2018-11-20T14:22:15.375Z,7.73
2018-11-20T14:25:45.552Z,10.30
2018-11-20T14:28:49.826Z,9.20
2018-11-20T14:31:58.654Z,7.57
2018-11-20T14:35:18.735Z,7.30
2018-11-20T14:40:51.813Z,8.47
2018-11-20T14:44:00.760Z,8.10
2018-11-20T14:49:53.760Z,8.57
2018-11-20T14:55:45.971Z,10.13
2018-11-20T14:58:54.889Z,11.43
2018-11-20T15:02:04.681Z,9.43
2018-11-20T15:05:32.419Z,9.37
2018-11-20T15:08:22.804Z,8.90
2018-11-20T15:11:31.646Z,9.23
2018-11-20T15:14:40.526Z,8.60
2018-11-20T15:20:31.553Z,10.60
2018-11-20T15:26:22.102Z,10.03
2018-11-20T15:29:30.999Z,11.37
2018-11-20T15:32:39.854Z,11.87
2018-11-20T15:35:48.725Z,9.60
2018-11-20T15:38:52.500Z,10.20
2018-11-20T15:42:06.741Z,10.13
2018-11-20T15:45:10.199Z,10.30
2018-11-20T16:04:42.801Z,7.80
2018-11-20T16:10:33.788Z,8.07
2018-11-20T16:13:42.646Z,6.63
2018-11-20T16:16:31.961Z,7.40
2018-11-20T16:22:28.914Z,7.97
2018-11-20T16:25:37.807Z,8.57
2018-11-20T16:28:46.953Z,7.03
2018-11-20T16:31:55.958Z,8.07
2018-11-20T16:35:24.028Z,8.47
2018-11-20T16:38:13.804Z,8.60
2018-11-20T16:41:23.748Z,7.20
2018-11-20T16:44:13.077Z,7.80
2018-11-20T16:47:14.092Z,7.73
2018-11-20T16:50:23.040Z,7.27
2018-11-20T16:53:12.342Z,7.00
2018-11-20T16:56:21.170Z,6.53
2018-11-20T16:59:30.092Z,7.07
2018-11-20T17:02:39.447Z,7.60
2018-11-20T17:05:48.531Z,8.07
2018-11-20T17:08:57.412Z,8.10
2018-11-20T17:14:50.908Z,8.70
2018-11-20T17:18:00.735Z,9.93
2018-11-20T17:20:51.500Z,8.37
2018-11-20T17:24:03.680Z,9.77
2018-11-20T17:29:54.698Z,8.83
2018-11-20T17:33:03.968Z,9.73
2018-11-20T17:36:13.211Z,10.70
2018-11-20T17:39:12.797Z,10.57
2018-11-20T17:42:22.059Z,10.80
2018-11-20T17:48:13.203Z,11.50
2018-11-20T17:51:14.658Z,10.30
2018-11-20T17:54:23.646Z,11.83
2018-11-20T17:57:13.890Z,10.57
2018-11-20T18:00:04.200Z,10.30
2018-11-20T18:05:56.454Z,10.73
2018-11-20T18:14:32.482Z,9.47
2018-11-20T18:17:41.468Z,10.03
2018-11-20T18:20:50.378Z,11.47
2018-11-20T18:27:02.727Z,10.00
2018-11-20T18:32:53.961Z,10.70
2018-11-20T18:36:03.222Z,12.53
2018-11-20T18:39:12.640Z,10.73
2018-11-20T18:42:28.410Z,13.00
2018-11-20T18:45:37.733Z,11.63
2018-11-20T18:48:26.916Z,11.17
2018-11-20T18:51:35.877Z,12.43
2018-11-20T18:54:44.755Z,11.90
2018-11-20T18:57:53.951Z,12.43
2018-11-20T19:01:02.842Z,10.70
2018-11-20T19:04:11.688Z,10.43
2018-11-20T19:15:28.582Z,9.83
2018-11-20T19:18:37.528Z,11.50
2018-11-20T19:21:26.839Z,10.20
2018-11-20T19:24:35.769Z,11.40
2018-11-20T19:27:44.648Z,11.33
2018-11-20T19:30:53.511Z,11.30
2018-11-20T19:34:02.470Z,13.27
2018-11-20T19:37:11.379Z,11.97
2018-11-20T19:40:21.060Z,10.33
2018-11-20T19:46:12.550Z,11.13
2018-11-20T19:52:25.735Z,11.30
2018-11-20T19:58:46.571Z,11.57
2018-11-20T20:01:55.466Z,10.90
2018-11-20T20:07:47.949Z,12.30
2018-11-20T20:10:57.749Z,12.13
2018-11-20T20:13:46.935Z,11.53
2018-11-20T20:16:56.446Z,10.73
2018-11-20T20:22:48.838Z,11.17
2018-11-20T20:28:21.190Z,9.83
2018-11-20T20:31:31.201Z,10.77
2018-11-20T20:34:35.613Z,10.03
2018-11-20T20:37:24.913Z,10.87
2018-11-20T20:40:33.764Z,11.40
2018-11-20T20:43:42.603Z,11.70
2018-11-20T20:46:51.484Z,10.83
2018-11-20T20:49:57.714Z,9.47
2018-11-20T20:58:34.952Z,9.40
2018-11-20T21:01:43.985Z,10.17
2018-11-20T21:04:40.246Z,9.00
2018-11-20T21:07:49.917Z,9.80
2018-11-20T21:10:39.463Z,10.23
2018-11-20T21:13:48.359Z,9.37
2018-11-20T21:22:26.257Z,9.83
2018-11-20T21:31:36.917Z,7.93
2018-11-20T21:34:45.774Z,7.90
2018-11-20T21:37:55.018Z,7.60
2018-11-20T21:41:18.303Z,7.80
2018-11-20T21:44:27.151Z,8.00
2018-11-20T21:47:17.575Z,7.47
2018-11-20T21:50:27.980Z,7.57
2018-11-20T21:53:36.786Z,8.60
2018-11-20T21:56:26.244Z,9.10
2018-11-20T21:59:42.112Z,8.20
2018-11-20T22:02:51.864Z,7.20
2018-11-20T22:08:43.613Z,7.07
2018-11-20T22:11:52.516Z,7.77
2018-11-20T22:17:46.415Z,7.53
2018-11-20T22:20:55.300Z,8.27
2018-11-20T22:24:04.184Z,9.47
2018-11-20T22:27:13.063Z,8.40
2018-11-20T22:33:04.411Z,8.13
2018-11-20T22:36:13.224Z,7.33
2018-11-20T22:39:02.501Z,8.10
2018-11-20T22:42:08.898Z,7.77
2018-11-20T22:48:20.704Z,8.23
2018-11-20T22:51:29.590Z,9.43
2018-11-20T22:54:38.615Z,9.63
2018-11-20T22:57:47.501Z,8.47
2018-11-20T23:00:56.352Z,8.73
2018-11-20T23:04:05.191Z,7.63
2018-11-20T23:07:14.041Z,7.83
2018-11-20T23:10:04.285Z,9.20
2018-11-20T23:12:55.127Z,8.57
2018-11-20T23:15:45.350Z,8.70
2018-11-20T23:18:35.608Z,9.90
2018-11-20T23:21:25.840Z,10.40
2018-11-20T23:27:00.491Z,9.70
2018-11-20T23:35:45.789Z,9.50
2018-11-20T23:38:16.347Z,10.50
2018-11-20T23:40:46.904Z,10.00
2018-11-20T23:43:17.487Z,11.50
2018-11-20T23:45:48.071Z,10.60
2018-11-20T23:48:18.619Z,10.20
2018-11-20T23:53:45.279Z,9.83
2018-11-20T23:56:35.979Z,9.77
2018-11-20T23:59:27.270Z,9.40
